createdAt,value
2022-10-25T00:00:26.910Z,14.68
2022-10-25T00:01:27.060Z,14.69
2022-10-25T00:02:26.939Z,14.68
2022-10-25T00:03:26.874Z,14.68
2022-10-25T00:04:26.857Z,14.68
2022-10-25T00:05:26.847Z,14.68
2022-10-25T00:06:26.827Z,14.68
2022-10-25T00:07:26.813Z,14.68
2022-10-25T00:08:26.801Z,14.68
2022-10-25T00:09:26.787Z,14.68
2022-10-25T00:10:26.779Z,14.69
2022-10-25T00:11:26.760Z,14.69
2022-10-25T00:12:26.793Z,14.68
2022-10-25T00:13:26.734Z,14.69
2022-10-25T00:14:26.724Z,14.69
2022-10-25T00:15:26.711Z,14.68
2022-10-25T00:16:26.700Z,14.68
2022-10-25T00:17:26.683Z,14.68
2022-10-25T00:18:26.708Z,14.68
2022-10-25T00:19:26.656Z,14.68
2022-10-25T00:20:26.643Z,14.68
2022-10-25T00:21:26.628Z,14.68
2022-10-25T00:22:26.616Z,14.68
2022-10-25T00:23:26.602Z,14.68
2022-10-25T00:24:26.590Z,14.67
2022-10-25T00:25:26.577Z,14.68
2022-10-25T00:26:26.563Z,14.69
2022-10-25T00:27:26.548Z,14.67
2022-10-25T00:28:26.543Z,14.68
2022-10-25T00:29:26.526Z,14.68
2022-10-25T00:30:26.520Z,14.67
2022-10-25T00:31:26.496Z,14.68
2022-10-25T00:32:26.484Z,14.68
2022-10-25T00:33:26.470Z,14.68
2022-10-25T00:34:26.480Z,14.68
2022-10-25T00:35:26.443Z,14.68
2022-10-25T00:36:26.431Z,14.67
2022-10-25T00:37:26.417Z,14.67
2022-10-25T00:38:26.405Z,14.68
2022-10-25T00:39:26.389Z,14.69
2022-10-25T00:40:26.379Z,14.68
2022-10-25T00:41:26.365Z,14.67
2022-10-25T00:42:26.357Z,14.69
2022-10-25T00:43:26.336Z,14.67
2022-10-25T00:44:26.326Z,14.68
2022-10-25T00:45:26.312Z,14.67
2022-10-25T00:46:26.299Z,14.68
2022-10-25T00:47:26.285Z,14.67
2022-10-25T00:48:26.274Z,14.68
2022-10-25T00:49:26.257Z,14.67
2022-10-25T00:50:26.273Z,14.68
2022-10-25T00:51:26.231Z,14.67
2022-10-25T00:52:26.220Z,14.67
2022-10-25T00:53:26.206Z,14.67
2022-10-25T00:54:26.194Z,14.67
2022-10-25T00:55:26.178Z,14.67
2022-10-25T00:56:26.167Z,14.67
2022-10-25T00:57:26.152Z,14.67
2022-10-25T00:58:26.142Z,14.67
2022-10-25T00:59:26.131Z,14.67
2022-10-25T01:00:26.141Z,14.68
2022-10-25T01:01:26.312Z,14.65
2022-10-25T01:02:26.159Z,14.68
2022-10-25T01:03:26.074Z,14.68
2022-10-25T01:04:26.064Z,14.65
2022-10-25T01:05:26.046Z,14.67
2022-10-25T01:06:26.064Z,14.67
2022-10-25T01:07:26.021Z,14.68
2022-10-25T01:08:26.012Z,14.67
2022-10-25T01:09:25.995Z,14.67
2022-10-25T01:10:25.984Z,14.67
2022-10-25T01:11:25.967Z,14.65
2022-10-25T01:12:25.956Z,14.67
2022-10-25T01:13:25.940Z,14.67
2022-10-25T01:14:25.931Z,14.65
2022-10-25T01:15:25.915Z,14.67
2022-10-25T01:16:25.903Z,14.65
2022-10-25T01:17:25.888Z,14.67
2022-10-25T01:18:25.877Z,14.65
2022-10-25T01:19:25.918Z,14.65
2022-10-25T01:20:25.852Z,14.65
2022-10-25T01:21:25.837Z,14.65
2022-10-25T01:22:25.849Z,14.64
2022-10-25T01:23:25.810Z,14.67
2022-10-25T01:24:25.798Z,14.65
2022-10-25T01:25:25.789Z,14.65
2022-10-25T01:26:25.771Z,14.65
2022-10-25T01:27:25.756Z,14.64
2022-10-25T01:28:25.746Z,14.65
2022-10-25T01:29:25.730Z,14.65
2022-10-25T01:30:25.719Z,14.64
2022-10-25T01:31:25.704Z,14.65
2022-10-25T01:32:25.691Z,14.64
2022-10-25T01:33:25.693Z,14.64
2022-10-25T01:34:25.668Z,14.64
2022-10-25T01:35:25.657Z,14.64
2022-10-25T01:36:25.641Z,14.64
2022-10-25T01:37:25.627Z,14.65
2022-10-25T01:38:25.640Z,14.64
2022-10-25T01:39:25.605Z,14.65
2022-10-25T01:40:25.585Z,14.65
2022-10-25T01:41:25.579Z,14.62
2022-10-25T01:42:25.561Z,14.64
2022-10-25T01:43:25.545Z,14.62
2022-10-25T01:44:25.627Z,14.64
2022-10-25T01:45:25.523Z,14.64
2022-10-25T01:46:25.507Z,14.64
2022-10-25T01:47:25.496Z,14.64
2022-10-25T01:48:25.481Z,14.62
2022-10-25T01:49:25.465Z,14.62
2022-10-25T01:50:25.456Z,14.64
2022-10-25T01:51:25.440Z,14.62
2022-10-25T01:52:25.444Z,14.65
2022-10-25T01:53:25.415Z,14.65
2022-10-25T01:54:25.426Z,14.62
2022-10-25T01:55:25.387Z,14.62
2022-10-25T01:56:25.384Z,14.64
2022-10-25T01:57:25.366Z,14.64
2022-10-25T01:58:25.398Z,14.64
2022-10-25T01:59:25.335Z,14.64
2022-10-25T02:00:25.324Z,14.64
2022-10-25T02:01:25.492Z,14.62
2022-10-25T02:02:25.297Z,14.64
2022-10-25T02:03:25.281Z,14.64
2022-10-25T02:04:25.271Z,14.64
2022-10-25T02:05:25.255Z,14.62
2022-10-25T02:06:25.243Z,14.62
2022-10-25T02:07:25.229Z,14.64
2022-10-25T02:08:25.221Z,14.61
2022-10-25T02:09:25.203Z,14.62
2022-10-25T02:10:25.218Z,14.62
2022-10-25T02:11:25.177Z,14.62
2022-10-25T02:12:25.164Z,14.61
2022-10-25T02:13:25.149Z,14.62
2022-10-25T02:14:25.138Z,14.61
2022-10-25T02:15:25.122Z,14.62
2022-10-25T02:16:25.112Z,14.64
2022-10-25T02:17:25.097Z,14.62
2022-10-25T02:18:25.121Z,14.61
2022-10-25T02:19:25.069Z,14.61
2022-10-25T02:20:25.059Z,14.61
2022-10-25T02:21:25.044Z,14.61
2022-10-25T02:22:25.032Z,14.61
2022-10-25T02:23:25.021Z,14.61
2022-10-25T02:24:25.011Z,14.60
2022-10-25T02:25:24.991Z,14.61
2022-10-25T02:26:25.006Z,14.61
2022-10-25T02:27:24.968Z,14.62
2022-10-25T02:28:24.952Z,14.60
2022-10-25T02:29:24.938Z,14.61
2022-10-25T02:30:24.925Z,14.61
2022-10-25T02:31:24.912Z,14.61
2022-10-25T02:32:24.903Z,14.60
2022-10-25T02:33:24.884Z,14.60
2022-10-25T02:34:24.875Z,14.61
2022-10-25T02:35:24.860Z,14.60
2022-10-25T02:36:24.846Z,14.62
2022-10-25T02:37:24.835Z,14.60
2022-10-25T02:38:24.820Z,14.61
2022-10-25T02:39:27.719Z,14.61
2022-10-25T02:40:24.794Z,14.60
2022-10-25T02:41:24.787Z,14.61
2022-10-25T02:42:24.792Z,14.61
2022-10-25T02:43:24.831Z,14.61
2022-10-25T02:44:24.741Z,14.61
2022-10-25T02:45:24.726Z,14.60
2022-10-25T02:46:24.716Z,14.60
2022-10-25T02:47:24.700Z,14.60
2022-10-25T02:48:24.695Z,14.57
2022-10-25T02:49:24.673Z,14.57
2022-10-25T02:50:24.662Z,14.60
2022-10-25T02:51:24.647Z,14.60
2022-10-25T02:52:24.638Z,14.60
2022-10-25T02:53:24.622Z,14.57
2022-10-25T02:54:24.613Z,14.57
2022-10-25T02:55:24.597Z,14.60
2022-10-25T02:56:24.584Z,14.57
2022-10-25T02:57:24.568Z,14.60
2022-10-25T02:58:24.581Z,14.57
2022-10-25T02:59:24.555Z,14.60
2022-10-25T03:00:24.646Z,14.60
2022-10-25T03:01:24.643Z,14.60
2022-10-25T03:02:24.504Z,14.57
2022-10-25T03:03:24.491Z,14.60
2022-10-25T03:04:24.478Z,14.60
2022-10-25T03:05:24.462Z,14.61
2022-10-25T03:06:24.452Z,14.57
2022-10-25T03:07:24.437Z,14.57
2022-10-25T03:08:24.442Z,14.60
2022-10-25T03:09:24.409Z,14.61
2022-10-25T03:10:24.398Z,14.60
2022-10-25T03:11:24.384Z,14.60
2022-10-25T03:12:24.371Z,14.60
2022-10-25T03:13:24.357Z,14.57
2022-10-25T03:14:24.373Z,14.60
2022-10-25T03:15:24.330Z,14.60
2022-10-25T03:16:24.319Z,14.60
2022-10-25T03:17:24.304Z,14.60
2022-10-25T03:18:24.291Z,14.56
2022-10-25T03:19:24.279Z,14.60
2022-10-25T03:20:24.267Z,14.57
2022-10-25T03:21:24.253Z,14.57
2022-10-25T03:22:24.241Z,14.60
2022-10-25T03:23:24.225Z,14.57
2022-10-25T03:24:24.212Z,14.57
2022-10-25T03:25:24.199Z,14.57
2022-10-25T03:26:24.186Z,14.57
2022-10-25T03:27:24.172Z,14.56
2022-10-25T03:28:24.160Z,14.57
2022-10-25T03:29:24.146Z,14.56
2022-10-25T03:30:24.175Z,14.57
2022-10-25T03:31:24.118Z,14.57
2022-10-25T03:32:24.106Z,14.57
2022-10-25T03:33:24.117Z,14.57
2022-10-25T03:34:24.084Z,14.60
2022-10-25T03:35:24.065Z,14.57
2022-10-25T03:36:24.055Z,14.57
2022-10-25T03:37:24.039Z,14.57
2022-10-25T03:38:24.031Z,14.56
2022-10-25T03:39:24.013Z,14.57
2022-10-25T03:40:24.002Z,14.57
2022-10-25T03:41:23.987Z,14.56
2022-10-25T03:42:23.976Z,14.57
2022-10-25T03:44:23.949Z,14.57
2022-10-25T03:45:23.936Z,14.56
2022-10-25T03:46:23.951Z,14.56
2022-10-25T03:47:23.906Z,14.57
2022-10-25T03:48:23.897Z,14.57
2022-10-25T03:49:23.881Z,14.56
2022-10-25T03:50:23.876Z,14.57
2022-10-25T03:51:23.854Z,14.57
2022-10-25T03:52:23.843Z,14.56
2022-10-25T03:53:23.828Z,14.56
2022-10-25T03:54:25.637Z,14.56
2022-10-25T03:55:23.801Z,14.56
2022-10-25T03:56:23.789Z,14.56
2022-10-25T03:57:23.775Z,14.56
2022-10-25T03:58:23.765Z,14.56
2022-10-25T03:59:23.749Z,14.57
2022-10-25T04:00:23.740Z,14.56
2022-10-25T04:01:23.949Z,14.57
2022-10-25T04:02:23.734Z,14.56
2022-10-25T04:03:23.698Z,14.56
2022-10-25T04:04:23.684Z,14.57
2022-10-25T04:05:23.686Z,14.56
2022-10-25T04:06:23.679Z,14.56
2022-10-25T04:07:23.739Z,14.56
2022-10-25T04:08:23.630Z,14.57
2022-10-25T04:09:23.618Z,14.56
2022-10-25T04:10:25.247Z,14.56
2022-10-25T04:11:23.594Z,14.56
2022-10-25T04:12:23.579Z,14.54
2022-10-25T04:13:23.566Z,14.57
2022-10-25T04:14:23.553Z,14.54
2022-10-25T04:15:23.540Z,14.54
2022-10-25T04:16:23.523Z,14.56
2022-10-25T04:17:23.512Z,14.54
2022-10-25T04:18:23.525Z,14.56
2022-10-25T04:19:23.487Z,14.54
2022-10-25T04:20:23.473Z,14.56
2022-10-25T04:21:23.460Z,14.54
2022-10-25T04:22:23.445Z,14.54
2022-10-25T04:23:23.435Z,14.56
2022-10-25T04:24:23.423Z,14.53
2022-10-25T04:25:23.407Z,14.54
2022-10-25T04:26:23.393Z,14.54
2022-10-25T04:27:23.380Z,14.54
2022-10-25T04:28:23.365Z,14.54
2022-10-25T04:29:23.354Z,14.54
2022-10-25T04:30:23.338Z,14.54
2022-10-25T04:31:23.329Z,14.54
2022-10-25T04:32:23.319Z,14.54
2022-10-25T04:33:23.302Z,14.56
2022-10-25T04:34:23.313Z,14.56
2022-10-25T04:35:23.279Z,14.54
2022-10-25T04:36:23.260Z,14.54
2022-10-25T04:37:23.251Z,14.54
2022-10-25T04:38:23.233Z,14.54
2022-10-25T04:39:23.223Z,14.54
2022-10-25T04:40:24.916Z,14.53
2022-10-25T04:41:23.195Z,14.53
2022-10-25T04:42:23.179Z,14.56
2022-10-25T04:43:23.168Z,14.54
2022-10-25T04:44:23.154Z,14.54
2022-10-25T04:45:23.143Z,14.54
2022-10-25T04:46:23.127Z,14.53
2022-10-25T04:47:23.115Z,14.54
2022-10-25T04:48:23.103Z,14.54
2022-10-25T04:49:23.089Z,14.53
2022-10-25T04:50:23.101Z,14.54
2022-10-25T04:51:23.064Z,14.54
2022-10-25T04:52:23.049Z,14.53
2022-10-25T04:53:23.037Z,14.53
2022-10-25T04:54:23.024Z,14.54
2022-10-25T04:55:23.010Z,14.53
2022-10-25T04:56:22.995Z,14.53
2022-10-25T04:57:22.985Z,14.54
2022-10-25T04:58:25.251Z,14.53
2022-10-25T04:59:22.957Z,14.52
2022-10-25T05:00:22.957Z,14.53
2022-10-25T05:01:23.017Z,14.53
2022-10-25T05:02:22.922Z,14.53
2022-10-25T05:03:22.964Z,14.54
2022-10-25T05:04:22.893Z,14.54
2022-10-25T05:05:22.877Z,14.54
2022-10-25T05:06:22.926Z,14.53
2022-10-25T05:07:22.850Z,14.53
2022-10-25T05:08:22.837Z,14.53
2022-10-25T05:09:22.824Z,14.53
2022-10-25T05:10:22.811Z,14.53
2022-10-25T05:11:22.881Z,14.53
2022-10-25T05:12:22.785Z,14.53
2022-10-25T05:13:22.772Z,14.53
2022-10-25T05:14:22.757Z,14.52
2022-10-25T05:15:22.747Z,14.53
2022-10-25T05:16:22.735Z,14.53
2022-10-25T05:17:22.721Z,14.52
2022-10-25T05:18:22.707Z,14.53
2022-10-25T05:19:22.694Z,14.53
2022-10-25T05:20:22.680Z,14.53
2022-10-25T05:21:22.750Z,14.53
2022-10-25T05:22:22.678Z,14.53
2022-10-25T05:23:22.642Z,14.53
2022-10-25T05:24:22.626Z,14.53
2022-10-25T05:25:22.622Z,14.53
2022-10-25T05:26:22.601Z,14.53
2022-10-25T05:27:22.589Z,14.54
2022-10-25T05:28:22.574Z,14.53
2022-10-25T05:29:22.566Z,14.54
2022-10-25T05:30:22.557Z,14.54
2022-10-25T05:31:22.537Z,14.53
2022-10-25T05:32:22.521Z,14.52
2022-10-25T05:33:22.513Z,14.52
2022-10-25T05:34:22.498Z,14.53
2022-10-25T05:35:22.492Z,14.53
2022-10-25T05:36:22.471Z,14.53
2022-10-25T05:37:22.457Z,14.54
2022-10-25T05:38:22.466Z,14.53
2022-10-25T05:39:22.430Z,14.54
2022-10-25T05:40:22.416Z,14.53
2022-10-25T05:41:22.403Z,14.54
2022-10-25T05:42:22.390Z,14.54
2022-10-25T05:43:22.377Z,14.54
2022-10-25T05:44:22.363Z,14.54
2022-10-25T05:45:22.353Z,14.53
2022-10-25T05:46:22.335Z,14.56
2022-10-25T05:47:22.324Z,14.56
2022-10-25T05:48:22.311Z,14.56
2022-10-25T05:49:22.298Z,14.54
2022-10-25T05:50:22.284Z,14.56
2022-10-25T05:51:37.099Z,14.56
2022-10-25T05:52:23.298Z,14.57
2022-10-25T05:53:22.246Z,14.56
2022-10-25T05:54:22.264Z,14.56
2022-10-25T05:55:22.219Z,14.56
2022-10-25T05:56:22.202Z,14.56
2022-10-25T05:57:22.196Z,14.56
2022-10-25T05:58:22.176Z,14.57
2022-10-25T05:59:22.165Z,14.56
2022-10-25T06:00:22.151Z,14.56
2022-10-25T06:01:22.311Z,14.56
2022-10-25T06:02:22.268Z,14.56
2022-10-25T06:03:22.115Z,14.57
2022-10-25T06:04:22.097Z,14.60
2022-10-25T06:05:22.085Z,14.57
2022-10-25T06:06:22.073Z,14.57
2022-10-25T06:07:22.059Z,14.60
2022-10-25T06:08:22.044Z,14.57
2022-10-25T06:09:22.033Z,14.57
2022-10-25T06:10:22.050Z,14.57
2022-10-25T06:11:22.008Z,14.57
2022-10-25T06:12:21.996Z,14.60
2022-10-25T06:13:21.981Z,14.61
2022-10-25T06:14:21.966Z,14.60
2022-10-25T06:15:21.954Z,14.60
2022-10-25T06:16:21.940Z,14.62
2022-10-25T06:17:21.927Z,14.61
2022-10-25T06:18:21.915Z,14.62
2022-10-25T06:19:21.902Z,14.62
2022-10-25T06:20:21.887Z,14.61
2022-10-25T06:21:21.874Z,14.60
2022-10-25T06:22:21.862Z,14.61
2022-10-25T06:23:21.849Z,14.61
2022-10-25T06:24:21.833Z,14.61
2022-10-25T06:25:21.821Z,14.62
2022-10-25T06:26:21.831Z,14.61
2022-10-25T06:27:21.794Z,14.60
2022-10-25T06:28:21.782Z,14.61
2022-10-25T06:29:21.772Z,14.60
2022-10-25T06:30:21.818Z,14.61
2022-10-25T06:31:21.743Z,14.60
2022-10-25T06:32:21.729Z,14.61
2022-10-25T06:33:24.488Z,14.60
2022-10-25T06:34:22.742Z,14.56
2022-10-25T06:35:21.700Z,14.60
2022-10-25T06:36:21.681Z,14.57
2022-10-25T06:37:21.663Z,14.60
2022-10-25T06:38:21.649Z,14.60
2022-10-25T06:39:21.638Z,14.57
2022-10-25T06:41:21.612Z,14.56
2022-10-25T06:42:21.623Z,14.57
2022-10-25T06:43:21.585Z,14.60
2022-10-25T06:44:21.570Z,14.60
2022-10-25T06:45:21.558Z,14.60
2022-10-25T06:46:21.543Z,14.60
2022-10-25T06:47:21.532Z,14.60
2022-10-25T06:48:21.516Z,14.61
2022-10-25T06:49:21.506Z,14.60
2022-10-25T06:50:21.491Z,14.61
2022-10-25T06:51:21.494Z,14.61
2022-10-25T06:52:21.464Z,14.61
2022-10-25T06:53:21.453Z,14.61
2022-10-25T06:54:21.437Z,14.62
2022-10-25T06:55:21.427Z,14.61
2022-10-25T06:56:21.411Z,14.64
2022-10-25T06:57:21.399Z,14.62
2022-10-25T06:58:21.406Z,14.62
2022-10-25T06:59:21.373Z,14.64
2022-10-25T07:00:21.360Z,14.65
2022-10-25T07:01:21.518Z,14.65
2022-10-25T07:02:21.426Z,14.64
2022-10-25T07:03:21.314Z,14.64
2022-10-25T07:04:21.301Z,14.62
2022-10-25T07:05:21.288Z,14.62
2022-10-25T07:06:21.403Z,14.62
2022-10-25T07:07:21.269Z,14.64
2022-10-25T07:08:21.253Z,14.64
2022-10-25T07:09:21.254Z,14.64
2022-10-25T07:10:21.227Z,14.65
2022-10-25T07:11:21.215Z,14.65
2022-10-25T07:12:21.199Z,14.65
2022-10-25T07:13:21.189Z,14.67
2022-10-25T07:14:21.193Z,14.67
2022-10-25T07:15:21.166Z,14.67
2022-10-25T07:16:21.149Z,14.65
2022-10-25T07:17:21.135Z,14.65
2022-10-25T07:18:21.120Z,14.67
2022-10-25T07:19:21.110Z,14.65
2022-10-25T07:20:21.094Z,14.67
2022-10-25T07:21:21.095Z,14.67
2022-10-25T07:22:21.070Z,14.67
2022-10-25T07:23:21.057Z,14.67
2022-10-25T07:24:21.047Z,14.68
2022-10-25T07:25:21.032Z,14.67
2022-10-25T07:26:21.017Z,14.67
2022-10-25T07:27:21.003Z,14.65
2022-10-25T07:28:20.988Z,14.65
2022-10-25T07:29:20.978Z,14.65
2022-10-25T07:30:20.987Z,14.67
2022-10-25T07:31:20.950Z,14.67
2022-10-25T07:32:20.937Z,14.67
2022-10-25T07:33:20.922Z,14.65
2022-10-25T07:34:20.908Z,14.67
2022-10-25T07:35:20.898Z,14.67
2022-10-25T07:36:20.883Z,14.68
2022-10-25T07:37:20.871Z,14.67
2022-10-25T07:38:23.339Z,14.67
2022-10-25T07:39:20.847Z,14.65
2022-10-25T07:40:20.830Z,14.65
2022-10-25T07:41:20.820Z,14.65
2022-10-25T07:42:20.802Z,14.67
2022-10-25T07:43:20.792Z,14.67
2022-10-25T07:44:24.797Z,14.65
2022-10-25T07:45:23.616Z,14.67
2022-10-25T07:46:20.774Z,14.67
2022-10-25T07:47:20.740Z,14.67
2022-10-25T07:48:20.723Z,14.67
2022-10-25T07:49:20.712Z,14.64
2022-10-25T07:50:20.698Z,14.64
2022-10-25T07:51:20.698Z,14.64
2022-10-25T07:52:20.671Z,14.64
2022-10-25T07:53:20.661Z,14.64
2022-10-25T07:54:20.648Z,14.62
2022-10-25T07:55:20.633Z,14.65
2022-10-25T07:56:23.410Z,14.64
2022-10-25T07:57:20.606Z,14.65
2022-10-25T07:58:20.596Z,14.65
2022-10-25T07:59:20.581Z,14.64
2022-10-25T08:00:20.567Z,14.64
2022-10-25T08:01:20.617Z,14.64
2022-10-25T08:02:24.238Z,14.65
2022-10-25T08:03:20.650Z,14.64
2022-10-25T08:04:20.580Z,14.65
2022-10-25T08:05:20.502Z,14.64
2022-10-25T08:06:20.486Z,14.65
2022-10-25T08:07:20.473Z,14.65
2022-10-25T08:08:20.460Z,14.67
2022-10-25T08:09:37.379Z,14.65
2022-10-25T08:10:21.535Z,14.65
2022-10-25T08:11:20.422Z,14.65
2022-10-25T08:12:22.625Z,14.65
2022-10-25T08:13:20.395Z,14.68
2022-10-25T08:14:20.423Z,14.68
2022-10-25T08:15:20.370Z,14.67
2022-10-25T08:16:20.355Z,14.67
2022-10-25T08:17:20.339Z,14.65
2022-10-25T08:18:20.356Z,14.67
2022-10-25T08:19:20.315Z,14.68
2022-10-25T08:20:26.109Z,14.67
2022-10-25T08:21:21.382Z,14.67
2022-10-25T08:22:20.276Z,14.67
2022-10-25T08:23:20.262Z,14.67
2022-10-25T08:25:22.499Z,14.67
2022-10-25T08:26:20.227Z,14.65
2022-10-25T08:27:20.211Z,14.67
2022-10-25T08:28:20.197Z,14.67
2022-10-25T08:29:20.182Z,14.67
2022-10-25T08:30:20.317Z,14.67
2022-10-25T08:31:20.155Z,14.67
2022-10-25T08:32:20.144Z,14.67
2022-10-25T08:33:20.130Z,14.67
2022-10-25T08:34:20.152Z,14.65
2022-10-25T08:35:20.105Z,14.65
2022-10-25T08:36:20.093Z,14.65
2022-10-25T08:37:20.076Z,14.67
2022-10-25T08:38:20.073Z,14.65
2022-10-25T08:39:20.049Z,14.65
2022-10-25T08:40:20.127Z,14.67
2022-10-25T08:41:20.058Z,14.65
2022-10-25T08:42:20.014Z,14.65
2022-10-25T08:43:20.001Z,14.64
2022-10-25T08:44:19.999Z,14.64
2022-10-25T08:45:19.971Z,14.64
2022-10-25T08:46:19.957Z,14.64
2022-10-25T08:47:19.947Z,14.64
2022-10-25T08:48:19.935Z,14.65
2022-10-25T08:49:19.920Z,14.65
2022-10-25T08:50:20.078Z,14.64
2022-10-25T08:51:19.891Z,14.65
2022-10-25T08:52:19.879Z,14.65
2022-10-25T08:53:19.866Z,14.67
2022-10-25T08:54:19.855Z,14.65
2022-10-25T08:55:19.838Z,14.64
2022-10-25T08:56:19.825Z,14.65
2022-10-25T08:57:19.814Z,14.67
2022-10-25T08:58:19.800Z,14.69
2022-10-25T08:59:19.790Z,14.67
2022-10-25T09:00:19.871Z,14.68
2022-10-25T09:01:19.859Z,14.68
2022-10-25T09:02:19.936Z,14.69
2022-10-25T09:03:19.732Z,14.69
2022-10-25T09:04:19.720Z,14.69
2022-10-25T09:05:19.705Z,14.71
2022-10-25T09:06:19.716Z,14.69
2022-10-25T09:07:19.681Z,14.69
2022-10-25T09:08:19.668Z,14.69
2022-10-25T09:09:19.654Z,14.69
2022-10-25T09:10:19.663Z,14.71
2022-10-25T09:11:19.629Z,14.71
2022-10-25T09:12:19.615Z,14.71
2022-10-25T09:13:19.602Z,14.72
2022-10-25T09:14:19.586Z,14.71
2022-10-25T09:15:19.574Z,14.72
2022-10-25T09:16:19.562Z,14.72
2022-10-25T09:17:19.550Z,14.72
2022-10-25T09:18:19.539Z,14.74
2022-10-25T09:19:19.521Z,14.74
2022-10-25T09:20:19.510Z,14.71
2022-10-25T09:21:22.615Z,14.72
2022-10-25T09:22:19.504Z,14.71
2022-10-25T09:23:19.466Z,14.71
2022-10-25T09:24:19.455Z,14.71
2022-10-25T09:25:19.442Z,14.71
2022-10-25T09:26:19.429Z,14.71
2022-10-25T09:27:19.420Z,14.71
2022-10-25T09:28:19.403Z,14.71
2022-10-25T09:29:19.390Z,14.71
2022-10-25T09:30:19.376Z,14.71
2022-10-25T09:31:19.360Z,14.69
2022-10-25T09:32:19.353Z,14.71
2022-10-25T09:33:19.336Z,14.68
2022-10-25T09:34:19.322Z,14.69
2022-10-25T09:35:19.309Z,14.69
2022-10-25T09:36:19.297Z,14.69
2022-10-25T09:37:19.285Z,14.69
2022-10-25T09:38:19.293Z,14.68
2022-10-25T09:39:19.257Z,14.69
2022-10-25T09:40:19.245Z,14.71
2022-10-25T09:41:19.231Z,14.68
2022-10-25T09:42:19.219Z,14.68
2022-10-25T09:43:19.206Z,14.67
2022-10-25T09:44:19.193Z,14.68
2022-10-25T09:45:19.176Z,14.69
2022-10-25T09:46:19.180Z,14.69
2022-10-25T09:47:19.150Z,14.68
2022-10-25T09:48:19.137Z,14.71
2022-10-25T09:49:19.124Z,14.69
2022-10-25T09:50:19.112Z,14.71
2022-10-25T09:51:19.099Z,14.71
2022-10-25T09:52:19.086Z,14.71
2022-10-25T09:53:21.836Z,14.69
2022-10-25T09:54:19.085Z,14.69
2022-10-25T09:55:19.045Z,14.71
2022-10-25T09:56:19.033Z,14.69
2022-10-25T09:57:19.019Z,14.69
2022-10-25T09:58:19.007Z,14.72
2022-10-25T09:59:18.993Z,14.72
2022-10-25T10:00:18.980Z,14.74
2022-10-25T10:01:19.070Z,14.72
2022-10-25T10:02:19.081Z,14.74
2022-10-25T10:03:18.942Z,14.74
2022-10-25T10:04:18.928Z,14.74
2022-10-25T10:05:18.914Z,14.72
2022-10-25T10:06:18.902Z,14.74
2022-10-25T10:07:18.887Z,14.74
2022-10-25T10:08:18.876Z,14.74
2022-10-25T10:09:18.861Z,14.74
2022-10-25T10:10:18.874Z,14.74
2022-10-25T10:11:18.834Z,14.72
2022-10-25T10:12:18.822Z,14.74
2022-10-25T10:13:18.808Z,14.74
2022-10-25T10:14:18.795Z,14.72
2022-10-25T10:15:18.782Z,14.72
2022-10-25T10:16:18.769Z,14.72
2022-10-25T10:17:18.753Z,14.72
2022-10-25T10:18:18.743Z,14.75
2022-10-25T10:19:18.729Z,14.75
2022-10-25T10:20:18.719Z,14.75
2022-10-25T10:21:18.702Z,14.77
2022-10-25T10:22:18.693Z,14.75
2022-10-25T10:23:18.677Z,14.75
2022-10-25T10:24:18.666Z,14.75
2022-10-25T10:25:18.648Z,14.74
2022-10-25T10:26:18.661Z,14.74
2022-10-25T10:27:18.623Z,14.74
2022-10-25T10:28:18.612Z,14.75
2022-10-25T10:29:18.596Z,14.75
2022-10-25T10:30:18.585Z,14.74
2022-10-25T10:31:18.570Z,14.74
2022-10-25T10:32:18.560Z,14.74
2022-10-25T10:33:18.544Z,14.74
2022-10-25T10:34:18.533Z,14.74
2022-10-25T10:35:18.522Z,14.74
2022-10-25T10:36:18.507Z,14.72
2022-10-25T10:37:18.492Z,14.74
2022-10-25T10:38:18.480Z,14.74
2022-10-25T10:39:18.464Z,14.74
2022-10-25T10:40:18.453Z,14.75
2022-10-25T10:41:18.439Z,14.77
2022-10-25T10:42:18.495Z,14.77
2022-10-25T10:43:18.413Z,14.77
2022-10-25T10:44:18.400Z,14.77
2022-10-25T10:45:18.395Z,14.75
2022-10-25T10:46:18.375Z,14.79
2022-10-25T10:47:18.360Z,14.77
2022-10-25T10:48:18.348Z,14.77
2022-10-25T10:49:18.333Z,14.77
2022-10-25T10:50:18.322Z,14.79
2022-10-25T10:51:42.927Z,14.79
2022-10-25T10:52:19.452Z,14.75
2022-10-25T10:53:18.280Z,14.75
2022-10-25T10:54:18.268Z,14.77
2022-10-25T10:55:18.254Z,14.75
2022-10-25T10:56:18.242Z,14.79
2022-10-25T10:57:18.227Z,14.77
2022-10-25T10:58:18.265Z,14.79
2022-10-25T10:59:18.201Z,14.77
2022-10-25T11:00:18.191Z,14.79
2022-10-25T11:01:18.297Z,14.77
2022-10-25T11:02:18.433Z,14.75
2022-10-25T11:03:18.162Z,14.75
2022-10-25T11:04:18.136Z,14.75
2022-10-25T11:05:18.124Z,14.77
2022-10-25T11:06:18.110Z,14.79
2022-10-25T11:07:18.098Z,14.79
2022-10-25T11:08:18.084Z,14.80
2022-10-25T11:09:18.196Z,14.82
2022-10-25T11:10:18.057Z,14.82
2022-10-25T11:11:18.043Z,14.83
2022-10-25T11:12:18.031Z,14.86
2022-10-25T11:13:18.017Z,14.87
2022-10-25T11:14:18.119Z,14.86
2022-10-25T11:15:17.990Z,14.86
2022-10-25T11:16:17.978Z,14.87
2022-10-25T11:17:17.963Z,14.89
2022-10-25T11:18:17.960Z,14.86
2022-10-25T11:19:17.936Z,14.87
2022-10-25T11:20:17.924Z,14.86
2022-10-25T11:21:17.910Z,14.86
2022-10-25T11:22:17.899Z,14.85
2022-10-25T11:23:17.884Z,14.86
2022-10-25T11:24:17.871Z,14.86
2022-10-25T11:25:17.861Z,14.85
2022-10-25T11:26:17.845Z,14.86
2022-10-25T11:27:17.833Z,14.86
2022-10-25T11:28:17.818Z,14.86
2022-10-25T11:29:17.806Z,14.90
2022-10-25T11:30:17.909Z,14.92
2022-10-25T11:31:17.777Z,14.94
2022-10-25T11:32:17.766Z,14.98
2022-10-25T11:33:17.750Z,15.00
2022-10-25T11:34:17.741Z,15.01
2022-10-25T11:35:17.726Z,15.02
2022-10-25T11:36:17.713Z,15.05
2022-10-25T11:37:17.698Z,15.08
2022-10-25T11:38:17.686Z,15.07
2022-10-25T11:39:17.671Z,15.08
2022-10-25T11:40:17.659Z,15.08
2022-10-25T11:41:17.646Z,15.07
2022-10-25T11:42:17.702Z,15.04
2022-10-25T11:43:17.636Z,15.02
2022-10-25T11:44:17.606Z,15.02
2022-10-25T11:45:17.591Z,15.01
2022-10-25T11:46:17.695Z,15.01
2022-10-25T11:47:17.568Z,15.01
2022-10-25T11:48:17.553Z,15.00
2022-10-25T11:49:17.540Z,14.98
2022-10-25T11:50:17.528Z,14.97
2022-10-25T11:51:17.514Z,14.98
2022-10-25T11:52:17.503Z,14.97
2022-10-25T11:53:17.487Z,14.97
2022-10-25T11:54:17.477Z,14.94
2022-10-25T11:55:17.460Z,14.93
2022-10-25T11:56:17.450Z,14.94
2022-10-25T11:57:17.433Z,14.93
2022-10-25T11:58:17.423Z,14.92
2022-10-25T11:59:17.418Z,14.92
2022-10-25T12:00:17.470Z,14.94
2022-10-25T12:01:17.412Z,14.93
2022-10-25T12:02:17.528Z,14.93
2022-10-25T12:03:17.360Z,14.94
2022-10-25T12:04:17.343Z,14.93
2022-10-25T12:05:17.329Z,14.93
2022-10-25T12:06:17.315Z,14.92
2022-10-25T12:07:17.301Z,14.93
2022-10-25T12:08:17.292Z,14.93
2022-10-25T12:09:17.275Z,14.93
2022-10-25T12:10:17.271Z,14.93
2022-10-25T12:11:18.834Z,14.93
2022-10-25T12:12:17.239Z,14.92
2022-10-25T12:13:17.221Z,14.93
2022-10-25T12:14:17.210Z,14.93
2022-10-25T12:15:17.196Z,14.93
2022-10-25T12:16:17.183Z,14.94
2022-10-25T12:17:17.168Z,14.94
2022-10-25T12:18:17.274Z,14.93
2022-10-25T12:19:17.144Z,14.94
2022-10-25T12:20:17.129Z,14.98
2022-10-25T12:21:17.117Z,14.97
2022-10-25T12:22:17.104Z,14.98
2022-10-25T12:23:17.089Z,14.97
2022-10-25T12:24:17.078Z,14.97
2022-10-25T12:25:17.065Z,14.97
2022-10-25T12:26:17.052Z,14.97
2022-10-25T12:27:17.037Z,14.97
2022-10-25T12:28:17.026Z,14.97
2022-10-25T12:29:17.013Z,14.97
2022-10-25T12:30:17.101Z,14.97
2022-10-25T12:31:16.987Z,14.97
2022-10-25T12:32:16.974Z,14.97
2022-10-25T12:33:16.962Z,14.98
2022-10-25T12:34:17.060Z,14.98
2022-10-25T12:35:16.937Z,14.97
2022-10-25T12:36:16.916Z,15.00
2022-10-25T12:37:16.905Z,14.98
2022-10-25T12:38:16.891Z,14.97
2022-10-25T12:39:16.884Z,14.98
2022-10-25T12:40:16.934Z,14.97
2022-10-25T12:41:16.856Z,14.98
2022-10-25T12:42:16.840Z,14.98
2022-10-25T12:43:16.827Z,15.00
2022-10-25T12:44:16.818Z,15.00
2022-10-25T12:45:16.805Z,15.00
2022-10-25T12:46:16.787Z,15.00
2022-10-25T12:47:16.776Z,14.98
2022-10-25T12:48:16.777Z,15.00
2022-10-25T12:49:16.763Z,14.98
2022-10-25T12:51:18.826Z,14.98
2022-10-25T12:52:16.707Z,15.00
2022-10-25T12:53:16.695Z,15.00
2022-10-25T12:54:16.682Z,15.00
2022-10-25T12:55:16.670Z,15.00
2022-10-25T12:56:16.655Z,15.02